Viridian — MYEX6 — position and weather

sailwx.info

Track history (hours):
 
Tides and Currents Weather Stations Pressure Air Temp Water Temp Dewpoint Dewpoint Depression Visibility Wind Speed Wind Dir Waves Ship Positions

Viridian

Last reported at 2017-Sep-29 10:24 UTC. Time now 2017-Oct-19 23:30 UTC.
Position N 38°51' E 001°26'.
Warning: this ship's position is 20 days out of date.

Length 16 m.

Type: Sailing vessel. MMSI: 235009837.

Date/timePositionNaut miles runAvg speedWind from/ knotsBaromVisibWave heightAir tempDewpointWater temp
2017-Sep-29 10:24N 38°51' E 001°26'2 5.4
2017-Sep-29 10:00N 38°53' E 001°27'2 0.0
2017-Sep-27 12:59N 38°55' E 001°27'2 4.0
2017-Sep-27 12:30N 38°53' E 001°27'  
2017-Sep-21 11:17N 39°18' E 001°56'3 6.6
2017-Sep-21 10:48N 39°19' E 001°60'2 6.9
2017-Sep-21 10:29N 39°20' E 002°02'4 6.9
2017-Sep-21 09:54N 39°22' E 002°07'3 6.9
2017-Sep-21 09:30N 39°24' E 002°10'4 6.6
2017-Sep-21 08:57N 39°25' E 002°14'3 6.6
2017-Sep-21 08:29N 39°27' E 002°18'3 6.7
2017-Sep-21 08:00N 39°28' E 002°21'8 0.4
2017-Sep-20 13:26N 39°27' E 002°31'3 6.2
2017-Sep-20 13:00N 39°29' E 002°34'3 6.3
2017-Sep-20 12:30N 39°31' E 002°36'3 5.8
2017-Sep-20 12:00N 39°34' E 002°38'0 0.2
2017-Sep-20 10:57N 39°34' E 002°38'0 0.0
2017-Sep-19 13:51N 39°34' E 002°38'0 0.0
2017-Sep-19 13:31N 39°34' E 002°38'2 4.6
2017-Sep-19 13:00N 39°32' E 002°40'4 7.5
2017-Sep-19 12:30N 39°29' E 002°42'3 6.5
2017-Sep-19 12:00N 39°26' E 002°43'2 4.3
2017-Sep-19 11:30N 39°24' E 002°45'5 6.0
2017-Sep-19 10:44N 39°21' E 002°49'2 7.3
2017-Sep-19 10:30N 39°20' E 002°51'  
Track history (hours):
 
Tides and Currents Weather Stations Pressure Air Temp Water Temp Dewpoint Dewpoint Depression Visibility Wind Speed Wind Dir Waves Ship Positions

Viridian

Last reported at 2017-Sep-29 10:24 UTC. Time now 2017-Oct-19 23:30 UTC.
Position N 38°51' E 001°26'.
Warning: this ship's position is 20 days out of date.

Length 16 m.

Type: Sailing vessel. MMSI: 235009837.

Date/timePositionNaut miles runAvg speedWind from/ knotsBaromVisibWave heightAir tempDewpointWater temp
2017-Sep-29 10:24N 38°51' E 001°26'2 5.4
2017-Sep-29 10:00N 38°53' E 001°27'2 0.0
2017-Sep-27 12:59N 38°55' E 001°27'2 4.0
2017-Sep-27 12:30N 38°53' E 001°27'  
2017-Sep-21 11:17N 39°18' E 001°56'3 6.6
2017-Sep-21 10:48N 39°19' E 001°60'2 6.9
2017-Sep-21 10:29N 39°20' E 002°02'4 6.9
2017-Sep-21 09:54N 39°22' E 002°07'3 6.9
2017-Sep-21 09:30N 39°24' E 002°10'4 6.6
2017-Sep-21 08:57N 39°25' E 002°14'3 6.6
2017-Sep-21 08:29N 39°27' E 002°18'3 6.7
2017-Sep-21 08:00N 39°28' E 002°21'8 0.4
2017-Sep-20 13:26N 39°27' E 002°31'3 6.2
2017-Sep-20 13:00N 39°29' E 002°34'3 6.3
2017-Sep-20 12:30N 39°31' E 002°36'3 5.8
2017-Sep-20 12:00N 39°34' E 002°38'0 0.2
2017-Sep-20 10:57N 39°34' E 002°38'0 0.0
2017-Sep-19 13:51N 39°34' E 002°38'0 0.0
2017-Sep-19 13:31N 39°34' E 002°38'2 4.6
2017-Sep-19 13:00N 39°32' E 002°40'4 7.5
2017-Sep-19 12:30N 39°29' E 002°42'3 6.5
2017-Sep-19 12:00N 39°26' E 002°43'2 4.3
2017-Sep-19 11:30N 39°24' E 002°45'5 6.0
2017-Sep-19 10:44N 39°21' E 002°49'2 7.3
2017-Sep-19 10:30N 39°20' E 002°51'  

Dump ship's entire track history